Time;durP1;ratioP1;P1;durP2;ratioP2;P2;SDS_P1;SDS_P2;PMS_P1;PMS_P2;Temp;Humidity;BMP_temperature;BMP_pressure;BME280_temperature;BME280_humidity;BME280_pressure;Samples;Min_cycle;Max_cycle;Signal;HPM_P1;HPM_P2
2021/01/12 00:02:01;;;;;;;30.87;21.40;;;7.00;99.90;;;-146.47;100.00;66290.13;4982102;28;20229;-79
2021/01/12 00:04:48;;;;;;;28.10;22.07;;;7.00;99.90;;;-146.47;100.00;66290.13;4981981;28;20258;-77
2021/01/12 00:07:33;;;;;;;28.37;23.30;;;7.00;99.90;;;-146.47;100.00;66290.13;4974347;28;20244;-77
2021/01/12 00:10:21;;;;;;;27.10;20.10;;;7.10;99.90;;;-146.47;100.00;66290.13;4967982;28;20595;-77
2021/01/12 00:13:06;;;;;;;30.70;21.17;;;7.10;99.90;;;-146.47;100.00;66290.13;4967427;28;20310;-76
2021/01/12 00:15:52;;;;;;;27.83;20.63;;;7.10;99.90;;;-146.47;100.00;66290.13;4973261;28;20289;-75
2021/01/12 00:18:37;;;;;;;26.00;19.53;;;7.10;99.90;;;-146.47;100.00;66290.13;4973339;28;20302;-79
2021/01/12 00:21:27;;;;;;;26.40;20.30;;;7.10;99.90;;;-146.47;100.00;66290.13;4979545;28;20562;-77
2021/01/12 00:24:12;;;;;;;25.43;20.27;;;7.10;99.90;;;-146.47;100.00;66290.13;4972617;28;20265;-76
2021/01/12 00:26:57;;;;;;;24.33;19.77;;;7.10;99.90;;;-146.47;100.00;66290.13;4980016;28;20558;-78
2021/01/12 00:29:44;;;;;;;27.70;19.93;;;7.20;99.90;;;-146.47;100.00;66290.13;4979919;28;20257;-77
2021/01/12 00:32:30;;;;;;;25.70;18.50;;;7.20;99.90;;;-146.47;100.00;66290.13;4972395;28;20206;-77
2021/01/12 00:35:15;;;;;;;25.43;19.20;;;7.20;99.90;;;-146.47;100.00;66290.13;4978188;28;20229;-78
2021/01/12 00:38:00;;;;;;;26.90;20.63;;;7.20;99.90;;;-146.47;100.00;66290.13;4970712;28;20257;-75
2021/01/12 00:40:45;;;;;;;22.70;18.30;;;7.20;99.90;;;-146.47;100.00;66290.13;4980722;28;20261;-76
2021/01/12 00:43:31;;;;;;;25.47;18.87;;;7.20;99.90;;;-146.47;100.00;66290.13;4974696;28;20214;-76
2021/01/12 00:46:17;;;;;;;18.00;13.40;;;7.20;99.90;;;-146.47;100.00;66290.13;4975274;28;20220;-76
2021/01/12 00:49:02;;;;;;;24.60;16.47;;;7.20;99.90;;;-146.47;100.00;66290.13;4967064;28;20284;-78
2021/01/12 00:51:48;;;;;;;20.57;15.27;;;7.30;99.90;;;-146.47;100.00;66290.13;4978686;28;20202;-77
2021/01/12 00:54:33;;;;;;;18.00;13.33;;;7.20;99.90;;;-146.47;100.00;66290.13;4970037;28;20214;-78
2021/01/12 00:57:18;;;;;;;19.33;14.87;;;7.30;99.90;;;-146.47;100.00;66290.13;4971069;28;20571;-77
2021/01/12 01:00:05;;;;;;;19.57;14.07;;;7.30;99.90;;;-146.47;100.00;66290.13;4974551;28;20260;-77
2021/01/12 01:02:51;;;;;;;20.03;15.83;;;7.30;99.90;;;-146.47;100.00;66290.13;4960522;28;20218;-77
2021/01/12 01:05:37;;;;;;;17.13;14.47;;;7.30;99.90;;;-146.47;100.00;66290.13;4976965;28;20209;-77
2021/01/12 01:08:25;;;;;;;18.90;13.40;;;7.30;99.90;;;-146.47;100.00;66290.13;4977946;28;20237;-77
2021/01/12 01:11:10;;;;;;;18.07;14.27;;;7.30;99.90;;;-146.47;100.00;66290.13;4978553;28;20209;-78
2021/01/12 01:13:58;;;;;;;18.20;16.27;;;7.30;99.90;;;-146.47;100.00;66290.13;4983259;28;20212;-79
2021/01/12 01:16:44;;;;;;;17.27;13.30;;;7.30;99.90;;;-146.47;100.00;66290.13;4973524;28;20572;-77
2021/01/12 01:19:31;;;;;;;18.20;13.40;;;7.30;99.90;;;-146.47;100.00;66290.13;4983796;28;20240;-78
2021/01/12 01:22:17;;;;;;;16.60;13.37;;;7.30;99.90;;;-146.47;100.00;66290.13;4976894;28;20201;-77
2021/01/12 01:25:02;;;;;;;16.77;12.27;;;7.30;99.90;;;-146.47;100.00;66290.13;4974508;28;20210;-77
2021/01/12 01:27:47;;;;;;;16.73;14.70;;;7.30;99.90;;;-146.47;100.00;66290.13;4979148;28;20626;-77
2021/01/12 01:30:32;;;;;;;16.27;12.47;;;7.30;99.90;;;-146.47;100.00;66290.13;4975464;28;20317;-78
2021/01/12 01:33:17;;;;;;;15.80;12.70;;;7.30;99.90;;;-146.47;100.00;66290.13;4985597;28;20238;-77
2021/01/12 01:36:04;;;;;;;13.90;11.00;;;7.30;99.90;;;-146.47;100.00;66290.13;4985029;28;20278;-77
2021/01/12 01:38:50;;;;;;;15.40;12.20;;;7.30;99.90;;;-146.47;100.00;66290.13;4978765;28;20229;-78
2021/01/12 01:41:35;;;;;;;15.10;11.87;;;7.30;99.90;;;-146.47;100.00;66290.13;4981271;28;20202;-76
2021/01/12 01:44:20;;;;;;;14.07;10.53;;;7.30;99.90;;;-146.47;100.00;66290.13;4975897;28;20213;-77
2021/01/12 01:47:09;;;;;;;14.03;11.80;;;7.30;99.90;;;-146.47;100.00;66290.13;4984895;28;20674;-78
2021/01/12 01:49:54;;;;;;;14.67;11.23;;;7.30;99.90;;;-146.47;100.00;66290.13;4982891;28;20318;-79
2021/01/12 01:52:43;;;;;;;14.73;10.27;;;7.30;99.90;;;-146.47;100.00;66290.13;4978084;28;20189;-77
2021/01/12 01:55:28;;;;;;;14.97;11.00;;;7.30;99.90;;;-146.47;100.00;66290.13;4981732;28;20253;-76
2021/01/12 01:58:14;;;;;;;10.60;8.37;;;7.30;99.90;;;-146.47;100.00;66290.13;4977053;28;20290;-77
2021/01/12 02:00:59;;;;;;;13.03;10.10;;;7.30;99.90;;;-146.47;100.00;66290.13;4968784;28;20276;-77
2021/01/12 02:03:50;;;;;;;15.60;11.87;;;7.30;99.90;;;-146.47;100.00;66290.13;4983327;28;20229;-77
2021/01/12 02:06:37;;;;;;;13.37;9.63;;;7.40;99.90;;;-146.47;100.00;66290.13;4980073;28;20274;-76
2021/01/12 02:09:34;;;;;;;14.47;10.63;;;7.40;99.90;;;-146.47;100.00;66290.13;4993657;28;20625;-76
2021/01/12 02:12:27;;;;;;;16.87;11.93;;;7.30;99.90;;;-146.47;100.00;66290.13;4991724;28;20206;-76
2021/01/12 02:15:18;;;;;;;12.87;9.83;;;7.40;99.90;;;-146.47;100.00;66290.13;4984443;28;20245;-77
2021/01/12 02:18:04;;;;;;;15.30;12.07;;;7.40;99.90;;;-146.47;100.00;66290.13;4976456;28;20258;-78
2021/01/12 02:20:51;;;;;;;14.43;11.67;;;7.40;99.90;;;-146.47;100.00;66290.13;4982091;28;20225;-77
2021/01/12 02:23:49;;;;;;;15.60;11.20;;;7.40;99.90;;;-146.47;100.00;66290.13;4974353;28;20227;-77
2021/01/12 02:26:34;;;;;;;15.80;11.57;;;7.40;99.90;;;-146.47;100.00;66290.13;4977075;28;20618;-77
2021/01/12 02:29:19;;;;;;;14.57;11.30;;;7.40;99.90;;;-146.47;100.00;66290.13;4975087;28;20294;-77
2021/01/12 02:32:05;;;;;;;12.53;9.67;;;7.40;99.90;;;-146.47;100.00;66290.13;4981382;28;20228;-78
2021/01/12 02:34:54;;;;;;;15.03;12.13;;;7.40;99.90;;;-146.47;100.00;66290.13;4981637;28;20286;-78
2021/01/12 02:37:39;;;;;;;15.10;10.73;;;7.40;99.90;;;-146.47;100.00;66290.13;4976206;28;20238;-77
2021/01/12 02:40:26;;;;;;;16.43;12.40;;;7.50;99.90;;;-146.47;100.00;66290.13;4977947;28;20560;-79
2021/01/12 02:43:11;;;;;;;16.97;11.97;;;7.50;99.90;;;-146.47;100.00;66290.13;4976337;28;20256;-78
2021/01/12 02:45:58;;;;;;;15.37;11.23;;;7.50;99.90;;;-146.47;100.00;66290.13;4966269;28;20242;-77
2021/01/12 02:48:43;;;;;;;14.17;9.73;;;7.50;99.90;;;-146.47;100.00;66290.13;4977392;28;20217;-78
2021/01/12 02:51:28;;;;;;;15.53;10.87;;;7.50;99.90;;;-146.47;100.00;66290.13;4979452;28;20225;-77
2021/01/12 02:54:13;;;;;;;12.07;9.67;;;7.50;99.90;;;-146.47;100.00;66290.13;4981671;28;20230;-76
2021/01/12 02:56:59;;;;;;;11.53;8.77;;;7.50;99.90;;;-146.47;100.00;66290.13;4983505;28;20244;-77
2021/01/12 02:59:44;;;;;;;18.27;11.67;;;7.60;99.90;;;-146.47;100.00;66290.13;4976678;28;20245;-76
2021/01/12 03:02:29;;;;;;;14.33;9.20;;;7.60;99.90;;;-146.47;100.00;66290.13;4966671;28;20286;-77
2021/01/12 03:05:15;;;;;;;15.67;11.07;;;7.60;99.90;;;-146.47;100.00;66290.13;4955330;28;20226;-78
2021/01/12 03:08:00;;;;;;;12.37;9.43;;;7.60;99.90;;;-146.47;100.00;66290.13;4962170;28;20241;-76
2021/01/12 03:10:45;;;;;;;14.57;9.90;;;7.60;99.90;;;-146.47;100.00;66290.13;4980587;28;20217;-77
2021/01/12 03:13:31;;;;;;;12.57;8.67;;;7.60;99.90;;;-146.47;100.00;66290.13;4980572;28;20845;-78
2021/01/12 03:16:16;;;;;;;16.20;10.17;;;7.60;99.90;;;-146.47;100.00;66290.13;4968071;28;20308;-77
2021/01/12 03:19:02;;;;;;;12.27;8.40;;;7.70;99.90;;;-146.47;100.00;66290.13;4965869;28;20612;-77
2021/01/12 03:21:47;;;;;;;14.63;10.30;;;7.70;99.90;;;-146.47;100.00;66290.13;4980591;28;20294;-77
2021/01/12 03:24:32;;;;;;;11.00;8.50;;;7.80;99.90;;;-146.47;100.00;66290.13;4973655;28;20226;-77
2021/01/12 03:27:18;;;;;;;11.77;7.87;;;7.80;99.90;;;-146.47;100.00;66290.13;4966616;28;20205;-78
2021/01/12 03:30:06;;;;;;;13.90;8.70;;;7.80;99.90;;;-146.47;100.00;66290.13;4964431;28;20237;-77
2021/01/12 03:32:52;;;;;;;13.07;8.57;;;7.80;99.90;;;-146.47;100.00;66290.13;4966547;28;20728;-77
2021/01/12 03:35:38;;;;;;;11.50;7.57;;;7.90;99.90;;;-146.47;100.00;66290.13;4977562;28;20645;-77
2021/01/12 03:38:23;;;;;;;10.03;7.20;;;7.90;99.90;;;-146.47;100.00;66290.13;4975156;28;20209;-75
2021/01/12 03:41:08;;;;;;;9.60;7.43;;;7.90;99.90;;;-146.47;100.00;66290.13;4968114;28;20248;-78
2021/01/12 03:43:53;;;;;;;8.93;6.10;;;7.90;99.90;;;-146.47;100.00;66290.13;4966813;28;20213;-78
2021/01/12 03:46:40;;;;;;;11.87;7.43;;;7.90;99.90;;;-146.47;100.00;66290.13;4970335;28;20747;-77
2021/01/12 03:49:25;;;;;;;10.00;7.40;;;7.90;99.90;;;-146.47;100.00;66290.13;4982020;28;20220;-77
2021/01/12 03:52:10;;;;;;;12.43;7.30;;;8.00;99.90;;;-146.47;100.00;66290.13;4989355;28;20731;-77
2021/01/12 03:54:56;;;;;;;10.53;7.27;;;8.00;99.90;;;-146.47;100.00;66290.13;4979175;28;20208;-76
2021/01/12 03:57:41;;;;;;;10.33;7.70;;;8.00;99.90;;;-146.47;100.00;66290.13;4980530;28;20353;-77
2021/01/12 04:00:27;;;;;;;9.87;6.00;;;8.00;99.90;;;-146.47;100.00;66290.13;4981985;28;20236;-78
2021/01/12 04:03:13;;;;;;;10.90;7.73;;;8.00;99.90;;;-146.47;100.00;66290.13;4967833;28;20210;-78
2021/01/12 04:06:03;;;;;;;10.70;6.87;;;8.10;99.90;;;-146.47;100.00;66290.13;4970878;28;20687;-79
2021/01/12 04:08:48;;;;;;;9.73;6.80;;;8.10;99.90;;;-146.47;100.00;66290.13;4972582;28;20203;-77
2021/01/12 04:11:34;;;;;;;11.63;7.30;;;8.10;99.90;;;-146.47;100.00;66290.13;4981401;28;20201;-78
2021/01/12 04:14:19;;;;;;;12.50;6.70;;;8.10;99.90;;;-146.47;100.00;66290.13;4980418;28;20212;-77
2021/01/12 04:17:04;;;;;;;8.37;6.00;;;8.20;99.90;;;-146.47;100.00;66290.13;4960336;28;20210;-77
2021/01/12 04:19:50;;;;;;;9.20;6.50;;;8.10;99.90;;;-146.47;100.00;66290.13;4977153;28;20242;-78
2021/01/12 04:22:36;;;;;;;9.80;5.93;;;8.10;99.90;;;-146.47;100.00;66290.13;4979765;28;20333;-78
2021/01/12 04:25:22;;;;;;;8.97;6.80;;;8.20;99.90;;;-146.47;100.00;66290.13;4965631;28;20205;-78
2021/01/12 04:28:07;;;;;;;7.77;6.07;;;8.20;99.90;;;-146.47;100.00;66290.13;4978923;28;20566;-78
2021/01/12 04:30:52;;;;;;;10.13;7.47;;;8.20;99.90;;;-146.47;100.00;66290.13;4978442;28;20229;-76
2021/01/12 04:33:38;;;;;;;8.67;7.20;;;8.20;99.90;;;-146.47;100.00;66290.13;4972762;28;20213;-78
2021/01/12 04:36:24;;;;;;;10.00;6.57;;;8.20;99.90;;;-146.47;100.00;66290.13;4961156;28;20241;-78
2021/01/12 04:39:09;;;;;;;8.37;6.10;;;8.20;99.90;;;-146.47;100.00;66290.13;4963617;28;20241;-78
2021/01/12 04:41:55;;;;;;;10.73;6.67;;;8.20;99.90;;;-146.47;100.00;66290.13;4968506;28;20253;-78
2021/01/12 04:44:40;;;;;;;10.90;7.10;;;8.30;99.90;;;-146.47;100.00;66290.13;4982721;28;21029;-78
2021/01/12 04:47:25;;;;;;;10.40;7.27;;;8.30;99.90;;;-146.47;100.00;66290.13;4983210;28;20224;-77
2021/01/12 04:50:12;;;;;;;9.20;6.10;;;8.30;99.90;;;-146.47;100.00;66290.13;4982538;28;20281;-77
2021/01/12 04:52:57;;;;;;;10.13;6.70;;;8.30;99.90;;;-146.47;100.00;66290.13;4973733;28;20647;-79
2021/01/12 04:55:43;;;;;;;9.57;6.40;;;8.30;99.90;;;-146.47;100.00;66290.13;4969044;28;20707;-78
2021/01/12 04:58:39;;;;;;;9.67;6.53;;;8.30;99.90;;;-146.47;100.00;66290.13;4966051;28;20226;-78
2021/01/12 05:01:24;;;;;;;7.80;6.13;;;8.30;99.90;;;-146.47;100.00;66290.13;4968504;28;20202;-77
2021/01/12 05:04:14;;;;;;;9.03;5.70;;;8.30;99.90;;;-146.47;100.00;66290.13;4982829;28;20217;-77
2021/01/12 05:07:00;;;;;;;11.60;6.93;;;8.40;99.90;;;-146.47;100.00;66290.13;4970435;28;20233;-78
2021/01/12 05:09:46;;;;;;;8.13;5.83;;;8.30;99.90;;;-146.47;100.00;66290.13;4976901;28;20299;-77
2021/01/12 05:12:31;;;;;;;10.07;6.20;;;8.40;99.90;;;-146.47;100.00;66290.13;4979150;28;20205;-76
2021/01/12 05:15:20;;;;;;;9.93;7.03;;;8.40;99.90;;;-146.47;100.00;66290.13;4974912;28;20220;-78
2021/01/12 05:18:08;;;;;;;12.17;7.23;;;8.40;99.90;;;-146.47;100.00;66290.13;4971578;28;20225;-77
2021/01/12 05:20:56;;;;;;;10.93;7.83;;;8.40;99.90;;;-146.47;100.00;66290.13;4984046;28;20232;-76
2021/01/12 05:24:00;;;;;;;13.23;6.93;;;8.40;99.90;;;-146.47;100.00;66290.13;4968599;28;20307;-78
2021/01/12 05:26:47;;;;;;;12.63;7.17;;;8.40;99.90;;;-146.47;100.00;66290.13;4962764;28;20214;-75
2021/01/12 05:29:35;;;;;;;11.07;6.77;;;8.40;99.90;;;-146.47;100.00;66290.13;4978600;28;20281;-78
2021/01/12 05:32:22;;;;;;;10.97;7.37;;;8.40;99.90;;;-146.47;100.00;66290.13;4967813;28;20250;-77
2021/01/12 05:35:09;;;;;;;11.50;7.73;;;8.40;99.90;;;-146.47;100.00;66290.13;4977155;28;20285;-79
2021/01/12 05:38:02;;;;;;;8.80;5.83;;;8.50;99.90;;;-146.47;100.00;66290.13;4973713;28;20301;-77
2021/01/12 05:40:53;;;;;;;12.77;7.00;;;8.50;99.90;;;-146.47;100.00;66290.13;4971547;28;20675;-77
2021/01/12 05:43:43;;;;;;;11.63;7.40;;;8.50;99.90;;;-146.47;100.00;66290.13;4965862;28;20207;-78
2021/01/12 05:46:30;;;;;;;10.10;7.47;;;8.50;99.90;;;-146.47;100.00;66290.13;4963460;28;20736;-78
2021/01/12 05:49:18;;;;;;;13.53;6.83;;;8.50;99.90;;;-146.47;100.00;66290.13;4966296;28;20873;-77
2021/01/12 05:52:06;;;;;;;15.37;7.30;;;8.50;99.90;;;-146.47;100.00;66290.13;4966491;28;20282;-78
2021/01/12 05:55:04;;;;;;;14.43;7.07;;;8.50;99.90;;;-146.47;100.00;66290.13;4974161;28;20225;-76
2021/01/12 05:58:09;;;;;;;14.03;7.47;;;8.50;99.90;;;-146.47;100.00;66290.13;4969210;28;20203;-77
2021/01/12 06:01:01;;;;;;;10.47;6.60;;;8.50;99.90;;;-146.47;100.00;66290.13;4976472;28;21072;-76
2021/01/12 06:03:47;;;;;;;14.30;7.23;;;8.50;99.90;;;-146.47;100.00;66290.13;4970289;28;20708;-76
2021/01/12 06:06:32;;;;;;;11.67;6.80;;;8.50;99.90;;;-146.47;100.00;66290.13;4968887;28;20201;-78
2021/01/12 06:09:19;;;;;;;12.63;7.43;;;8.50;99.90;;;-146.47;100.00;66290.13;4964085;28;20270;-77
2021/01/12 06:12:08;;;;;;;9.77;8.10;;;8.50;99.90;;;-146.47;100.00;66290.13;4972861;28;20218;-77
2021/01/12 06:14:59;;;;;;;13.57;7.50;;;8.60;99.90;;;-146.47;100.00;66290.13;4963024;28;20214;-77
2021/01/12 06:17:48;;;;;;;10.60;6.83;;;8.50;99.90;;;-146.47;100.00;66290.13;4966155;28;20246;-77
2021/01/12 06:20:57;;;;;;;11.10;7.07;;;8.60;99.90;;;-146.47;100.00;66290.13;4967945;28;20228;-77
2021/01/12 06:23:55;;;;;;;13.13;6.93;;;8.60;99.90;;;-146.47;100.00;66290.13;4981369;28;20298;-78
2021/01/12 06:26:40;;;;;;;10.77;6.90;;;8.60;99.90;;;-146.47;100.00;66290.13;4972445;28;20225;-77
2021/01/12 06:29:29;;;;;;;10.73;7.03;;;8.60;99.90;;;-146.47;100.00;66290.13;4971603;28;20226;-77
2021/01/12 06:32:19;;;;;;;9.80;6.37;;;8.60;99.90;;;-146.47;100.00;66290.13;4963932;28;20214;-78
2021/01/12 06:35:08;;;;;;;10.13;6.43;;;8.60;99.90;;;-146.47;100.00;66290.13;4980521;28;20225;-77
2021/01/12 06:37:56;;;;;;;9.33;5.80;;;8.60;99.90;;;-146.47;100.00;66290.13;4977963;28;20213;-76
2021/01/12 06:40:49;;;;;;;9.83;5.53;;;8.60;99.90;;;-146.47;100.00;66290.13;4966392;28;20249;-77
2021/01/12 06:43:36;;;;;;;11.23;5.70;;;8.60;99.90;;;-146.47;100.00;66290.13;4979487;28;20205;-77
2021/01/12 06:46:23;;;;;;;8.57;5.73;;;8.60;99.90;;;-146.47;100.00;66290.13;4960858;28;20206;-77
2021/01/12 06:49:08;;;;;;;9.63;7.03;;;8.60;99.90;;;-146.47;100.00;66290.13;4971201;28;20236;-77
2021/01/12 06:52:02;;;;;;;10.70;6.90;;;8.60;99.90;;;-146.47;100.00;66290.13;4979472;28;20213;-79
2021/01/12 06:54:48;;;;;;;11.47;6.60;;;8.60;99.90;;;-146.47;100.00;66290.13;4970141;28;20294;-77
2021/01/12 06:57:34;;;;;;;9.00;6.50;;;8.60;99.90;;;-146.47;100.00;66290.13;4969808;28;20238;-77
2021/01/12 07:00:21;;;;;;;12.40;7.13;;;8.60;99.90;;;-146.47;100.00;66290.13;4975832;28;20260;-78
2021/01/12 07:03:11;;;;;;;13.00;7.40;;;8.60;99.90;;;-146.47;100.00;66290.13;4979414;28;20708;-78
2021/01/12 07:06:01;;;;;;;12.57;7.60;;;8.60;99.90;;;-146.47;100.00;66290.13;4971794;28;20212;-77
2021/01/12 07:08:51;;;;;;;11.00;7.50;;;8.60;99.90;;;-146.47;100.00;66290.13;4979762;28;20218;-78
2021/01/12 07:11:36;;;;;;;13.30;7.23;;;8.60;99.90;;;-146.47;100.00;66290.13;4966051;28;20232;-77
2021/01/12 07:14:25;;;;;;;10.73;7.13;;;8.60;99.90;;;-146.47;100.00;66290.13;4976635;28;20244;-77
2021/01/12 07:17:10;;;;;;;12.40;7.03;;;8.60;99.90;;;-146.47;100.00;66290.13;4965534;28;20290;-77
2021/01/12 07:20:06;;;;;;;11.10;6.23;;;8.60;99.90;;;-146.47;100.00;66290.13;4973483;28;20799;-77
2021/01/12 07:22:59;;;;;;;13.97;5.27;;;8.60;99.90;;;-146.47;100.00;66290.13;4968147;28;20265;-78
2021/01/12 07:25:48;;;;;;;11.17;5.60;;;8.60;99.90;;;-146.47;100.00;66290.13;4977477;28;20201;-77
2021/01/12 07:28:33;;;;;;;9.30;5.57;;;8.60;99.90;;;-146.47;100.00;66290.13;4973376;28;20213;-78
2021/01/12 07:31:27;;;;;;;8.57;5.30;;;8.60;99.90;;;-146.47;100.00;66290.13;4978794;28;20204;-77
2021/01/12 07:34:16;;;;;;;10.80;5.00;;;8.50;99.90;;;-146.47;100.00;66290.13;4977114;28;20246;-76
2021/01/12 07:37:05;;;;;;;8.50;4.60;;;8.50;99.90;;;-146.47;100.00;66290.13;4965184;28;20213;-78
2021/01/12 07:39:51;;;;;;;10.27;4.60;;;8.50;99.90;;;-146.47;100.00;66290.13;4970995;28;20240;-77
2021/01/12 07:42:47;;;;;;;4.77;3.70;;;8.50;99.90;;;-146.47;100.00;66290.13;4972619;28;20678;-78
2021/01/12 07:45:35;;;;;;;9.83;4.10;;;8.50;99.90;;;-146.47;100.00;66290.13;4972929;28;20200;-78
2021/01/12 07:48:20;;;;;;;7.70;3.70;;;8.50;99.90;;;-146.47;100.00;66290.13;4969726;28;20739;-77
2021/01/12 07:51:09;;;;;;;6.70;3.20;;;8.50;99.90;;;-146.47;100.00;66290.13;4970062;28;20224;-78
2021/01/12 07:53:54;;;;;;;6.20;3.00;;;8.40;99.90;;;-146.47;100.00;66290.13;4957754;28;20210;-79
2021/01/12 07:56:42;;;;;;;9.30;3.83;;;8.40;99.90;;;-146.47;100.00;66290.13;4966585;28;20224;-76
2021/01/12 07:59:28;;;;;;;5.13;3.00;;;8.40;99.90;;;-146.47;100.00;66290.13;4964126;28;20750;-77
2021/01/12 08:02:15;;;;;;;4.60;2.47;;;8.30;99.90;;;-146.47;100.00;66290.13;4964160;28;20637;-77
2021/01/12 08:05:03;;;;;;;3.90;2.27;;;8.30;99.90;;;-146.47;100.00;66290.13;4953709;28;20224;-77
2021/01/12 08:07:48;;;;;;;8.00;2.23;;;8.30;99.90;;;-146.47;100.00;66290.13;4970522;28;20217;-76
2021/01/12 08:10:36;;;;;;;7.40;2.30;;;8.30;99.90;;;-146.47;100.00;66290.13;4972795;28;20672;-76
2021/01/12 08:13:23;;;;;;;6.27;2.57;;;8.20;99.90;;;-146.47;100.00;66290.13;4977401;28;20570;-77
2021/01/12 08:16:09;;;;;;;3.10;1.83;;;8.20;99.90;;;-146.47;100.00;66290.13;4971812;28;20233;-77
2021/01/12 08:18:57;;;;;;;3.00;2.30;;;8.20;99.90;;;-146.47;100.00;66290.13;4975914;28;20268;-77
2021/01/12 08:21:42;;;;;;;4.93;2.20;;;8.20;99.90;;;-146.47;100.00;66290.13;4974939;28;20699;-77
2021/01/12 08:24:27;;;;;;;4.07;2.00;;;8.10;99.90;;;-146.47;100.00;66290.13;4979030;28;20205;-79
2021/01/12 08:27:18;;;;;;;2.33;2.13;;;8.10;99.90;;;-146.47;100.00;66290.13;4973331;28;20234;-77
2021/01/12 08:30:08;;;;;;;5.77;2.33;;;8.10;99.90;;;-146.47;100.00;66290.13;4966495;28;20646;-77
2021/01/12 08:33:06;;;;;;;4.27;2.30;;;8.10;99.90;;;-146.47;100.00;66290.13;4972064;28;21138;-76
2021/01/12 08:35:59;;;;;;;5.40;2.50;;;8.10;99.90;;;-146.47;100.00;66290.13;4979417;28;20209;-77
2021/01/12 08:38:48;;;;;;;7.13;2.93;;;8.10;99.90;;;-146.47;100.00;66290.13;4975470;28;20213;-76
2021/01/12 08:41:34;;;;;;;4.10;3.07;;;8.00;99.90;;;-146.47;100.00;66290.13;4978394;28;20201;-77
2021/01/12 08:44:23;;;;;;;6.23;3.03;;;8.00;99.90;;;-146.47;100.00;66290.13;4979476;28;20202;-77
2021/01/12 08:47:08;;;;;;;5.73;2.87;;;8.00;99.90;;;-146.47;100.00;66290.13;4970163;28;20296;-77
2021/01/12 08:50:07;;;;;;;9.80;3.67;;;8.00;99.90;;;-146.47;100.00;66290.13;4973535;28;20237;-77
2021/01/12 08:52:55;;;;;;;7.50;3.47;;;8.10;99.90;;;-146.47;100.00;66290.13;4977715;28;20261;-76
2021/01/12 08:55:40;;;;;;;9.50;4.07;;;8.10;99.90;;;-146.47;100.00;66290.13;4976576;28;20200;-77
2021/01/12 08:58:25;;;;;;;7.67;4.03;;;8.00;99.90;;;-146.47;100.00;66290.13;4977089;28;20209;-77
2021/01/12 09:01:14;;;;;;;9.03;4.80;;;8.10;99.90;;;-146.47;100.00;66290.13;4972233;28;20248;-78
2021/01/12 09:04:04;;;;;;;6.43;4.43;;;8.00;99.90;;;-146.47;100.00;66290.13;4970636;28;20563;-76
2021/01/12 09:07:07;;;;;;;6.37;4.27;;;8.00;99.90;;;-146.47;100.00;66290.13;4970993;28;20293;-78
2021/01/12 09:09:56;;;;;;;10.30;5.00;;;8.10;99.90;;;-146.47;100.00;66290.13;4974356;28;20277;-77
2021/01/12 09:12:43;;;;;;;6.70;4.53;;;8.00;99.90;;;-146.47;100.00;66290.13;4968194;28;20274;-77
2021/01/12 09:15:30;;;;;;;6.87;4.30;;;8.10;99.90;;;-146.47;100.00;66290.13;4975305;28;20201;-76
2021/01/12 09:18:19;;;;;;;6.80;4.60;;;8.10;99.90;;;-146.47;100.00;66290.13;4980654;28;20242;-75
2021/01/12 09:21:07;;;;;;;4.93;4.17;;;8.00;99.90;;;-146.47;100.00;66290.13;4976680;28;20300;-75
2021/01/12 09:23:53;;;;;;;6.67;4.13;;;8.00;99.90;;;-146.47;100.00;66290.13;4982997;28;20206;-76
2021/01/12 09:26:39;;;;;;;3.70;2.97;;;8.00;99.90;;;-146.47;100.00;66290.13;4973156;28;20218;-78
2021/01/12 09:29:27;;;;;;;7.43;4.00;;;8.00;99.90;;;-146.47;100.00;66290.13;4971460;28;20228;-79
2021/01/12 09:32:12;;;;;;;5.07;3.00;;;8.00;99.90;;;-146.47;100.00;66290.13;4967667;28;20785;-80
2021/01/12 09:34:57;;;;;;;8.67;3.33;;;8.10;99.90;;;-146.47;100.00;66290.13;4970860;28;20262;-77
2021/01/12 09:37:42;;;;;;;7.43;3.43;;;8.10;99.90;;;-146.47;100.00;66290.13;4973607;28;20214;-78
2021/01/12 09:40:29;;;;;;;6.97;3.40;;;8.20;99.90;;;-146.47;100.00;66290.13;4971533;28;20224;-76
2021/01/12 09:43:23;;;;;;;4.97;3.10;;;8.20;99.90;;;-146.47;100.00;66290.13;4976090;28;20200;-76
2021/01/12 09:46:10;;;;;;;3.57;2.60;;;8.20;99.90;;;-146.47;100.00;66290.13;4976085;28;20214;-76
2021/01/12 09:48:56;;;;;;;3.77;2.50;;;8.30;99.90;;;-146.47;100.00;66290.13;4974496;28;20201;-76
2021/01/12 09:51:42;;;;;;;3.63;2.50;;;8.30;99.90;;;-146.47;100.00;66290.13;4972655;28;20225;-77
2021/01/12 09:54:28;;;;;;;4.13;2.60;;;8.30;99.90;;;-146.47;100.00;66290.13;4975337;28;20221;-77
2021/01/12 09:57:14;;;;;;;3.00;2.60;;;8.30;99.90;;;-146.47;100.00;66290.13;4969047;28;20709;-77
2021/01/12 09:59:59;;;;;;;6.30;2.53;;;8.30;99.90;;;-146.47;100.00;66290.13;4974236;28;20233;-76
2021/01/12 10:02:44;;;;;;;5.10;2.40;;;8.30;99.90;;;-146.47;100.00;66290.13;4976469;28;20253;-77
2021/01/12 10:05:30;;;;;;;4.43;2.73;;;8.30;99.90;;;-146.47;100.00;66290.13;4961128;28;20246;-77
2021/01/12 10:08:15;;;;;;;2.93;2.33;;;8.40;99.90;;;-146.47;100.00;66290.13;4959133;28;20353;-76
2021/01/12 10:11:03;;;;;;;2.50;2.30;;;8.40;99.90;;;-146.47;100.00;66290.13;4968807;28;20234;-78
2021/01/12 10:13:49;;;;;;;4.37;2.27;;;8.40;99.90;;;-146.47;100.00;66290.13;4966688;28;20208;-78
2021/01/12 10:16:34;;;;;;;5.33;2.50;;;8.40;99.90;;;-146.47;100.00;66290.13;4970056;28;20514;-76
2021/01/12 10:19:19;;;;;;;5.57;2.53;;;8.50;99.90;;;-146.47;100.00;66290.13;4958627;28;21361;-77
2021/01/12 10:22:04;;;;;;;6.33;2.77;;;8.50;99.90;;;-146.47;100.00;66290.13;4967605;28;20304;-78
2021/01/12 10:24:50;;;;;;;7.00;2.97;;;8.50;99.90;;;-146.47;100.00;66290.13;4961494;28;20277;-76
2021/01/12 10:27:41;;;;;;;5.60;2.77;;;8.40;99.90;;;-146.47;100.00;66290.13;4963383;28;20302;-76
2021/01/12 10:30:27;;;;;;;8.63;2.70;;;8.40;99.90;;;-146.47;100.00;66290.13;4957978;28;20584;-76
2021/01/12 10:33:12;;;;;;;4.23;2.80;;;8.40;99.90;;;-146.47;100.00;66290.13;4968507;28;20565;-76
2021/01/12 10:35:57;;;;;;;10.43;2.83;;;8.40;99.90;;;-146.47;100.00;66290.13;4952924;28;20217;-75
2021/01/12 10:38:44;;;;;;;6.83;2.83;;;8.40;99.90;;;-146.47;100.00;66290.13;4956367;28;20302;-76
2021/01/12 10:41:29;;;;;;;6.00;2.90;;;8.40;99.90;;;-146.47;100.00;66290.13;4959529;28;20245;-77
2021/01/12 10:44:14;;;;;;;4.40;2.30;;;8.40;99.90;;;-146.47;100.00;66290.13;4955832;28;20213;-77
2021/01/12 10:47:00;;;;;;;6.57;3.03;;;8.40;99.90;;;-146.47;100.00;66290.13;4945604;28;20397;-76
2021/01/12 10:49:46;;;;;;;5.57;2.50;;;8.40;99.90;;;-146.47;100.00;66290.13;4960575;28;20763;-76
2021/01/12 10:52:32;;;;;;;6.17;2.00;;;8.40;99.90;;;-146.47;100.00;66290.13;4962144;28;20213;-76
2021/01/12 10:55:18;;;;;;;3.63;2.17;;;8.40;99.90;;;-146.47;100.00;66290.13;4965043;28;20217;-76
2021/01/12 10:58:03;;;;;;;3.83;1.63;;;8.50;99.90;;;-146.47;100.00;66290.13;4959824;28;20695;-77
2021/01/12 11:00:49;;;;;;;3.57;1.50;;;8.50;99.90;;;-146.47;100.00;66290.13;4950887;28;20727;-77
2021/01/12 11:03:35;;;;;;;2.97;1.90;;;8.40;99.90;;;-146.47;100.00;66290.13;4957563;28;20278;-75
2021/01/12 11:06:21;;;;;;;4.23;2.00;;;8.40;99.90;;;-146.47;100.00;66290.13;4967260;28;20217;-77
2021/01/12 11:09:06;;;;;;;2.03;1.40;;;8.30;99.90;;;-146.47;100.00;66290.13;4959640;28;20225;-78
2021/01/12 11:11:52;;;;;;;2.00;1.60;;;8.30;99.90;;;-146.47;100.00;66290.13;4964977;28;20642;-77
2021/01/12 11:14:37;;;;;;;3.07;1.70;;;8.20;99.90;;;-146.47;100.00;66290.13;4966871;28;20208;-76
2021/01/12 11:17:24;;;;;;;4.47;1.63;;;8.20;99.90;;;-146.47;100.00;66290.13;4962867;28;20292;-77
2021/01/12 11:20:13;;;;;;;2.87;1.53;;;8.20;99.90;;;-146.47;100.00;66290.13;4964270;28;20359;-76
2021/01/12 11:22:58;;;;;;;3.87;1.93;;;8.20;99.90;;;-146.47;100.00;66290.13;4965800;28;20783;-77